createdAt,value
2019-01-22T00:00:56.284Z,69.13
2019-01-22T00:06:01.597Z,65.00
2019-01-22T00:11:06.816Z,68.93
2019-01-22T00:16:12.272Z,65.63
2019-01-22T00:21:17.400Z,65.60
2019-01-22T00:26:22.572Z,64.53
2019-01-22T00:31:27.598Z,63.67
2019-01-22T00:36:32.965Z,62.60
2019-01-22T00:41:38.055Z,65.50
2019-01-22T00:46:43.462Z,62.57
2019-01-22T00:51:48.744Z,59.83
2019-01-22T00:56:53.815Z,60.73
2019-01-22T01:01:58.870Z,64.20
2019-01-22T01:07:04.171Z,65.60
2019-01-22T01:12:09.241Z,68.97
2019-01-22T01:17:14.986Z,69.70
2019-01-22T01:22:20.422Z,63.90
2019-01-22T01:27:27.200Z,65.93
2019-01-22T01:32:47.688Z,64.67
2019-01-22T01:37:52.830Z,62.33
2019-01-22T01:42:58.234Z,62.83
2019-01-22T01:48:05.698Z,67.57
2019-01-22T01:53:10.863Z,64.20
2019-01-22T01:58:16.419Z,74.23
2019-01-22T02:03:21.575Z,62.93
2019-01-22T02:08:26.777Z,65.90
2019-01-22T02:13:39.157Z,63.20
2019-01-22T02:19:10.357Z,65.70
2019-01-22T02:24:43.874Z,62.53
2019-01-22T02:30:04.641Z,63.87
2019-01-22T02:35:37.352Z,67.73
2019-01-22T02:41:20.234Z,63.47
2019-01-22T02:46:38.985Z,63.87
2019-01-22T02:52:08.277Z,58.00
2019-01-22T02:57:56.674Z,64.20
2019-01-22T03:03:30.529Z,61.17
2019-01-22T03:09:06.475Z,61.10
2019-01-22T03:14:53.652Z,68.97
2019-01-22T03:20:48.988Z,65.97
2019-01-22T03:26:34.681Z,74.63
2019-01-22T03:32:19.784Z,68.40
2019-01-22T03:38:17.787Z,75.40
2019-01-22T03:43:39.942Z,67.30
2019-01-22T03:48:56.137Z,73.43
2019-01-22T03:54:26.097Z,65.23
2019-01-22T03:59:31.706Z,65.87
2019-01-22T04:04:37.085Z,65.03
2019-01-22T04:09:53.195Z,75.00
2019-01-22T04:14:58.461Z,68.87
2019-01-22T04:20:03.948Z,70.03
2019-01-22T04:25:33.365Z,64.90
2019-01-22T04:31:05.311Z,69.83
2019-01-22T04:36:59.722Z,66.83
2019-01-22T04:42:35.168Z,64.73
2019-01-22T04:48:05.985Z,67.57
2019-01-22T04:53:55.479Z,69.83
2019-01-22T04:59:23.124Z,66.90
2019-01-22T05:04:54.540Z,71.23
2019-01-22T05:10:14.415Z,69.77
2019-01-22T05:16:07.469Z,63.30
2019-01-22T05:21:25.179Z,67.83
2019-01-22T05:27:14.779Z,64.93
2019-01-22T05:32:55.616Z,71.53
2019-01-22T05:38:35.604Z,66.87
2019-01-22T05:44:19.699Z,66.57
2019-01-22T05:49:52.993Z,69.37
2019-01-22T05:55:07.666Z,57.27
2019-01-22T06:00:41.743Z,66.77
2019-01-22T06:06:17.478Z,56.93
2019-01-22T06:12:06.287Z,59.83
2019-01-22T06:18:03.452Z,60.10
2019-01-22T06:24:07.836Z,58.73
2019-01-22T06:29:45.900Z,56.00
2019-01-22T06:35:10.204Z,58.70
2019-01-22T06:40:56.519Z,53.90
2019-01-22T06:46:26.853Z,57.33
2019-01-22T06:52:06.393Z,51.13
2019-01-22T06:57:31.057Z,55.67
2019-01-22T07:03:22.202Z,53.77
2019-01-22T07:09:22.625Z,57.90
2019-01-22T07:15:20.961Z,55.57
2019-01-22T07:21:28.846Z,55.80
2019-01-22T07:27:16.508Z,63.33
2019-01-22T07:32:39.893Z,59.00
2019-01-22T07:38:06.106Z,63.10
2019-01-22T07:44:10.654Z,59.00
2019-01-22T07:49:39.705Z,64.53
2019-01-22T07:55:15.097Z,56.83
2019-01-22T08:00:38.569Z,55.23
2019-01-22T08:06:20.203Z,56.03
2019-01-22T08:11:55.037Z,59.63
2019-01-22T08:17:21.632Z,53.30
2019-01-22T08:23:03.315Z,52.10
2019-01-22T08:29:08.830Z,53.43
2019-01-22T08:34:54.721Z,55.67
2019-01-22T08:40:58.406Z,58.20
2019-01-22T08:46:18.085Z,58.53
2019-01-22T08:52:01.987Z,56.90
2019-01-22T08:57:51.263Z,55.13
2019-01-22T09:03:19.613Z,58.57
2019-01-22T09:08:58.891Z,57.10
2019-01-22T09:14:44.900Z,58.97
2019-01-22T09:20:25.653Z,53.80
2019-01-22T09:25:51.331Z,55.10
2019-01-22T09:31:16.883Z,54.40
2019-01-22T09:37:02.094Z,45.87
2019-01-22T09:42:07.149Z,49.70
2019-01-22T09:47:12.411Z,45.80
2019-01-22T09:52:17.583Z,46.80
2019-01-22T09:57:23.092Z,45.63
2019-01-22T10:02:33.975Z,43.90
2019-01-22T10:07:39.426Z,47.00
2019-01-22T10:12:45.155Z,45.90
2019-01-22T10:17:50.886Z,44.07
2019-01-22T10:22:56.321Z,48.00
2019-01-22T10:28:01.559Z,46.23
2019-01-22T10:33:06.911Z,46.20
2019-01-22T10:38:50.443Z,46.77
2019-01-22T10:44:25.510Z,44.20
2019-01-22T10:49:52.825Z,51.60
2019-01-22T10:55:04.863Z,53.00
2019-01-22T11:00:35.557Z,49.40
2019-01-22T11:05:42.507Z,51.13
2019-01-22T11:11:08.701Z,48.10
2019-01-22T11:16:15.120Z,43.77
2019-01-22T11:21:20.708Z,49.20
2019-01-22T11:26:26.407Z,45.90
2019-01-22T11:31:39.090Z,48.00
2019-01-22T11:36:54.526Z,47.53
2019-01-22T11:42:26.042Z,43.10
2019-01-22T11:47:33.926Z,46.13
2019-01-22T11:52:39.857Z,53.50
2019-01-22T11:57:45.990Z,43.53
2019-01-22T12:02:52.501Z,47.27
2019-01-22T12:07:58.099Z,45.40
2019-01-22T12:13:03.783Z,49.60
2019-01-22T12:18:09.580Z,41.87
2019-01-22T12:23:15.202Z,44.53
2019-01-22T12:28:20.128Z,48.20
2019-01-22T12:33:25.995Z,50.90
2019-01-22T12:38:31.576Z,54.40
2019-01-22T12:43:37.239Z,49.87
2019-01-22T12:48:42.969Z,44.20
2019-01-22T12:53:54.653Z,45.83
2019-01-22T12:59:10.111Z,45.40
2019-01-22T13:04:15.708Z,44.40
2019-01-22T13:10:00.607Z,44.17
2019-01-22T13:40:54.117Z,42.43
2019-01-22T13:46:02.604Z,46.23
2019-01-22T13:51:11.783Z,45.87
2019-01-22T13:56:18.585Z,55.70
2019-01-22T14:01:24.384Z,47.87
2019-01-22T14:06:31.060Z,45.90
2019-01-22T14:11:36.544Z,49.47
2019-01-22T14:16:56.948Z,50.33
2019-01-22T14:22:03.733Z,50.77
2019-01-22T14:27:09.399Z,55.50
2019-01-22T14:32:14.856Z,54.63
2019-01-22T14:37:20.675Z,53.87
2019-01-22T14:42:27.874Z,51.73
2019-01-22T14:47:33.487Z,51.93
2019-01-22T14:52:41.508Z,54.73
2019-01-22T14:57:47.198Z,52.93
2019-01-22T15:02:53.395Z,48.07
2019-01-22T15:07:59.000Z,51.47
2019-01-22T15:13:05.786Z,55.73
2019-01-22T15:18:14.014Z,54.63
2019-01-22T15:23:29.576Z,55.10
2019-01-22T15:28:38.806Z,54.37
2019-01-22T15:33:45.917Z,51.10
2019-01-22T15:38:59.692Z,53.43
2019-01-22T15:44:13.338Z,49.60
2019-01-22T15:49:27.480Z,50.73
2019-01-22T15:54:32.928Z,50.73
2019-01-22T15:59:38.890Z,50.67
2019-01-22T16:04:44.568Z,53.40
2019-01-22T16:09:50.600Z,54.27
2019-01-22T16:14:58.645Z,54.17
2019-01-22T16:20:06.616Z,52.27
2019-01-22T16:25:16.181Z,54.20
2019-01-22T16:30:26.823Z,52.90
2019-01-22T16:35:32.414Z,51.43
2019-01-22T16:40:40.850Z,54.10
2019-01-22T16:45:47.394Z,53.03
2019-01-22T16:50:52.932Z,57.80
2019-01-22T16:55:58.425Z,54.77
2019-01-22T17:01:04.127Z,53.07
2019-01-22T17:06:10.573Z,47.20
2019-01-22T17:11:17.230Z,50.33
2019-01-22T17:16:24.044Z,52.03
2019-01-22T17:21:29.586Z,53.10
2019-01-22T17:26:35.196Z,52.33
2019-01-22T17:32:04.634Z,55.00
2019-01-22T17:37:10.283Z,55.77
2019-01-22T17:42:17.081Z,55.73
2019-01-22T17:47:23.819Z,57.70
2019-01-22T17:52:30.228Z,55.83
2019-01-22T17:57:39.471Z,54.90
2019-01-22T18:02:46.501Z,57.50
2019-01-22T18:07:52.537Z,59.17
2019-01-22T18:12:58.924Z,60.50
2019-01-22T18:18:04.600Z,66.70
2019-01-22T18:23:10.288Z,60.47
2019-01-22T18:28:15.569Z,61.73
2019-01-22T18:33:22.688Z,61.20
2019-01-22T18:38:28.192Z,60.90
2019-01-22T18:43:34.093Z,56.63
2019-01-22T18:48:40.226Z,57.73
2019-01-22T18:54:06.680Z,64.23
2019-01-22T18:59:14.949Z,57.50
2019-01-22T19:04:23.276Z,170.37
2019-01-22T19:09:30.717Z,64.43
2019-01-22T19:14:39.964Z,64.67
2019-01-22T19:19:47.936Z,60.07
2019-01-22T19:24:53.733Z,60.07
2019-01-22T19:30:06.846Z,61.27
2019-01-22T19:35:27.714Z,62.53
2019-01-22T19:40:40.355Z,58.10
2019-01-22T19:45:50.828Z,55.40
2019-01-22T19:50:57.666Z,59.50
2019-01-22T19:56:08.001Z,57.67
2019-01-22T20:01:25.601Z,55.43
2019-01-22T20:06:34.832Z,62.87
2019-01-22T20:11:40.206Z,62.50
2019-01-22T20:16:45.572Z,59.17
2019-01-22T20:21:50.816Z,58.87
2019-01-22T20:27:05.384Z,61.97
2019-01-22T20:32:10.598Z,64.47
2019-01-22T20:37:15.939Z,67.80
2019-01-22T20:42:21.219Z,65.10
2019-01-22T20:47:26.400Z,71.47
2019-01-22T20:52:32.334Z,69.03
2019-01-22T20:57:37.905Z,66.17
2019-01-22T21:02:43.109Z,68.07
2019-01-22T21:07:48.224Z,71.43
2019-01-22T21:12:54.068Z,70.87
2019-01-22T21:17:59.251Z,67.00
2019-01-22T21:23:04.717Z,70.47
2019-01-22T21:28:09.808Z,72.27
2019-01-22T21:33:16.246Z,78.57
2019-01-22T21:38:21.450Z,74.33
2019-01-22T21:43:26.769Z,73.60
2019-01-22T21:48:33.799Z,78.73
2019-01-22T21:53:44.289Z,77.77
2019-01-22T21:58:50.318Z,76.87
2019-01-22T22:03:55.742Z,75.53
2019-01-22T22:09:02.248Z,72.47
2019-01-22T22:14:10.956Z,74.93
2019-01-22T22:19:16.594Z,73.73
2019-01-22T22:24:26.988Z,72.23
2019-01-22T22:29:34.571Z,79.43
2019-01-22T22:34:40.826Z,82.07
2019-01-22T22:39:46.054Z,82.13
2019-01-22T22:44:51.130Z,79.53
2019-01-22T22:49:56.526Z,74.17
2019-01-22T22:55:02.120Z,81.67
2019-01-22T23:00:33.596Z,75.83
2019-01-22T23:05:42.498Z,86.97
2019-01-22T23:10:47.566Z,77.13
2019-01-22T23:15:52.650Z,73.03
2019-01-22T23:20:58.845Z,67.43
2019-01-22T23:26:04.054Z,81.37
2019-01-22T23:31:09.112Z,81.50
2019-01-22T23:36:14.706Z,74.30
2019-01-22T23:41:19.915Z,67.87
2019-01-22T23:46:25.215Z,69.67
2019-01-22T23:51:30.362Z,68.93
2019-01-22T23:56:35.692Z,85.33
